sensor_id;sensor_type;location;lat;lon;timestamp;P1;durP1;ratioP1;P2;durP2;ratioP2
7076;SDS011;3579;48.956;9.154;2023-08-20T00:01:11;1.30;;;1.20;;
7076;SDS011;3579;48.956;9.154;2023-08-20T00:03:40;1.50;;;1.40;;
7076;SDS011;3579;48.956;9.154;2023-08-20T00:06:07;1.33;;;1.23;;
7076;SDS011;3579;48.956;9.154;2023-08-20T00:08:33;1.47;;;1.37;;
7076;SDS011;3579;48.956;9.154;2023-08-20T00:11:00;1.63;;;1.53;;
7076;SDS011;3579;48.956;9.154;2023-08-20T00:13:26;1.40;;;1.30;;
7076;SDS011;3579;48.956;9.154;2023-08-20T00:15:53;1.50;;;1.40;;
7076;SDS011;3579;48.956;9.154;2023-08-20T00:18:19;1.53;;;1.43;;
7076;SDS011;3579;48.956;9.154;2023-08-20T00:20:46;1.43;;;1.33;;
7076;SDS011;3579;48.956;9.154;2023-08-20T00:23:12;1.40;;;1.30;;
7076;SDS011;3579;48.956;9.154;2023-08-20T00:25:38;1.50;;;1.40;;
7076;SDS011;3579;48.956;9.154;2023-08-20T00:28:05;1.50;;;1.40;;
7076;SDS011;3579;48.956;9.154;2023-08-20T00:30:31;1.40;;;1.30;;
7076;SDS011;3579;48.956;9.154;2023-08-20T00:32:57;1.40;;;1.30;;
7076;SDS011;3579;48.956;9.154;2023-08-20T00:35:23;1.50;;;1.40;;
7076;SDS011;3579;48.956;9.154;2023-08-20T00:37:49;1.80;;;1.70;;
7076;SDS011;3579;48.956;9.154;2023-08-20T00:40:15;1.60;;;1.50;;
7076;SDS011;3579;48.956;9.154;2023-08-20T00:42:41;1.47;;;1.37;;
7076;SDS011;3579;48.956;9.154;2023-08-20T00:45:07;1.50;;;1.40;;
7076;SDS011;3579;48.956;9.154;2023-08-20T00:47:34;1.67;;;1.40;;
7076;SDS011;3579;48.956;9.154;2023-08-20T00:50:01;1.40;;;1.30;;
7076;SDS011;3579;48.956;9.154;2023-08-20T00:52:31;1.50;;;1.40;;
7076;SDS011;3579;48.956;9.154;2023-08-20T00:54:57;1.50;;;1.40;;
7076;SDS011;3579;48.956;9.154;2023-08-20T00:57:23;1.40;;;1.30;;
7076;SDS011;3579;48.956;9.154;2023-08-20T00:59:50;1.50;;;1.40;;
7076;SDS011;3579;48.956;9.154;2023-08-20T01:02:17;1.63;;;1.47;;
7076;SDS011;3579;48.956;9.154;2023-08-20T01:04:43;1.60;;;1.50;;
7076;SDS011;3579;48.956;9.154;2023-08-20T01:07:57;1.53;;;1.43;;
7076;SDS011;3579;48.956;9.154;2023-08-20T01:12:58;1.53;;;1.43;;
7076;SDS011;3579;48.956;9.154;2023-08-20T01:15:26;1.60;;;1.50;;
7076;SDS011;3579;48.956;9.154;2023-08-20T01:17:52;1.57;;;1.47;;
7076;SDS011;3579;48.956;9.154;2023-08-20T01:20:18;1.50;;;1.40;;
7076;SDS011;3579;48.956;9.154;2023-08-20T01:28:47;1.50;;;1.40;;
7076;SDS011;3579;48.956;9.154;2023-08-20T01:31:14;1.50;;;1.40;;
7076;SDS011;3579;48.956;9.154;2023-08-20T01:33:41;1.50;;;1.40;;
7076;SDS011;3579;48.956;9.154;2023-08-20T01:36:08;1.30;;;1.20;;
7076;SDS011;3579;48.956;9.154;2023-08-20T01:38:37;1.47;;;1.37;;
7076;SDS011;3579;48.956;9.154;2023-08-20T01:41:03;1.60;;;1.50;;
7076;SDS011;3579;48.956;9.154;2023-08-20T01:43:30;1.50;;;1.40;;
7076;SDS011;3579;48.956;9.154;2023-08-20T01:45:56;1.60;;;1.50;;
7076;SDS011;3579;48.956;9.154;2023-08-20T01:48:22;1.53;;;1.43;;
7076;SDS011;3579;48.956;9.154;2023-08-20T01:50:48;1.50;;;1.40;;
7076;SDS011;3579;48.956;9.154;2023-08-20T01:53:14;1.47;;;1.37;;
7076;SDS011;3579;48.956;9.154;2023-08-20T01:55:40;1.60;;;1.50;;
7076;SDS011;3579;48.956;9.154;2023-08-20T01:58:06;1.53;;;1.43;;
7076;SDS011;3579;48.956;9.154;2023-08-20T02:00:32;1.60;;;1.50;;
7076;SDS011;3579;48.956;9.154;2023-08-20T02:02:59;1.70;;;1.60;;
7076;SDS011;3579;48.956;9.154;2023-08-20T02:05:25;1.50;;;1.40;;
7076;SDS011;3579;48.956;9.154;2023-08-20T02:07:51;1.40;;;1.30;;
7076;SDS011;3579;48.956;9.154;2023-08-20T02:10:17;1.80;;;1.67;;
7076;SDS011;3579;48.956;9.154;2023-08-20T02:12:43;1.40;;;1.30;;
7076;SDS011;3579;48.956;9.154;2023-08-20T02:15:09;1.53;;;1.43;;
7076;SDS011;3579;48.956;9.154;2023-08-20T02:17:36;1.47;;;1.37;;
7076;SDS011;3579;48.956;9.154;2023-08-20T02:20:02;1.60;;;1.50;;
7076;SDS011;3579;48.956;9.154;2023-08-20T02:22:33;1.30;;;1.20;;
7076;SDS011;3579;48.956;9.154;2023-08-20T02:24:59;1.60;;;1.50;;
7076;SDS011;3579;48.956;9.154;2023-08-20T02:27:25;1.60;;;1.50;;
7076;SDS011;3579;48.956;9.154;2023-08-20T02:29:51;1.40;;;1.30;;
7076;SDS011;3579;48.956;9.154;2023-08-20T02:32:17;1.50;;;1.40;;
7076;SDS011;3579;48.956;9.154;2023-08-20T02:34:44;1.37;;;1.27;;
7076;SDS011;3579;48.956;9.154;2023-08-20T02:37:13;1.63;;;1.53;;
7076;SDS011;3579;48.956;9.154;2023-08-20T02:39:39;1.50;;;1.40;;
7076;SDS011;3579;48.956;9.154;2023-08-20T02:42:05;1.50;;;1.40;;
7076;SDS011;3579;48.956;9.154;2023-08-20T02:44:31;1.50;;;1.40;;
7076;SDS011;3579;48.956;9.154;2023-08-20T02:46:57;1.70;;;1.60;;
7076;SDS011;3579;48.956;9.154;2023-08-20T02:49:23;1.60;;;1.50;;
7076;SDS011;3579;48.956;9.154;2023-08-20T02:51:49;1.50;;;1.40;;
7076;SDS011;3579;48.956;9.154;2023-08-20T02:54:15;1.40;;;1.30;;
7076;SDS011;3579;48.956;9.154;2023-08-20T02:56:41;1.40;;;1.30;;
7076;SDS011;3579;48.956;9.154;2023-08-20T02:59:07;1.77;;;1.67;;
7076;SDS011;3579;48.956;9.154;2023-08-20T03:01:33;1.57;;;1.47;;
7076;SDS011;3579;48.956;9.154;2023-08-20T03:03:59;1.80;;;1.70;;
7076;SDS011;3579;48.956;9.154;2023-08-20T03:06:25;1.60;;;1.50;;
7076;SDS011;3579;48.956;9.154;2023-08-20T03:08:51;1.50;;;1.40;;
7076;SDS011;3579;48.956;9.154;2023-08-20T03:11:17;1.50;;;1.40;;
7076;SDS011;3579;48.956;9.154;2023-08-20T03:13:44;1.70;;;1.60;;
7076;SDS011;3579;48.956;9.154;2023-08-20T03:16:10;1.50;;;1.40;;
7076;SDS011;3579;48.956;9.154;2023-08-20T03:18:36;1.50;;;1.40;;
7076;SDS011;3579;48.956;9.154;2023-08-20T03:21:02;1.50;;;1.40;;
7076;SDS011;3579;48.956;9.154;2023-08-20T03:23:28;1.67;;;1.57;;
7076;SDS011;3579;48.956;9.154;2023-08-20T03:25:57;1.50;;;1.40;;
7076;SDS011;3579;48.956;9.154;2023-08-20T03:28:24;1.50;;;1.40;;
7076;SDS011;3579;48.956;9.154;2023-08-20T03:30:50;1.77;;;1.67;;
7076;SDS011;3579;48.956;9.154;2023-08-20T03:33:16;1.57;;;1.47;;
7076;SDS011;3579;48.956;9.154;2023-08-20T03:35:42;1.57;;;1.47;;
7076;SDS011;3579;48.956;9.154;2023-08-20T03:38:08;1.63;;;1.53;;
7076;SDS011;3579;48.956;9.154;2023-08-20T03:40:34;1.67;;;1.57;;
7076;SDS011;3579;48.956;9.154;2023-08-20T03:43:00;1.60;;;1.50;;
7076;SDS011;3579;48.956;9.154;2023-08-20T03:45:27;1.50;;;1.40;;
7076;SDS011;3579;48.956;9.154;2023-08-20T03:47:55;1.70;;;1.60;;
7076;SDS011;3579;48.956;9.154;2023-08-20T03:50:21;1.50;;;1.40;;
7076;SDS011;3579;48.956;9.154;2023-08-20T03:52:47;1.60;;;1.50;;
7076;SDS011;3579;48.956;9.154;2023-08-20T03:55:13;1.60;;;1.50;;
7076;SDS011;3579;48.956;9.154;2023-08-20T03:57:39;1.70;;;1.60;;
7076;SDS011;3579;48.956;9.154;2023-08-20T04:00:05;1.70;;;1.50;;
7076;SDS011;3579;48.956;9.154;2023-08-20T04:02:34;1.73;;;1.63;;
7076;SDS011;3579;48.956;9.154;2023-08-20T04:05:00;1.70;;;1.60;;
7076;SDS011;3579;48.956;9.154;2023-08-20T04:07:26;1.70;;;1.60;;
7076;SDS011;3579;48.956;9.154;2023-08-20T04:09:52;1.60;;;1.50;;
7076;SDS011;3579;48.956;9.154;2023-08-20T04:12:18;1.70;;;1.60;;
7076;SDS011;3579;48.956;9.154;2023-08-20T04:14:44;1.93;;;1.73;;
7076;SDS011;3579;48.956;9.154;2023-08-20T04:17:10;2.30;;;1.77;;
7076;SDS011;3579;48.956;9.154;2023-08-20T04:19:36;1.67;;;1.57;;
7076;SDS011;3579;48.956;9.154;2023-08-20T04:22:02;1.50;;;1.40;;
7076;SDS011;3579;48.956;9.154;2023-08-20T04:24:28;1.80;;;1.40;;
7076;SDS011;3579;48.956;9.154;2023-08-20T04:26:54;1.67;;;1.57;;
7076;SDS011;3579;48.956;9.154;2023-08-20T04:29:20;1.73;;;1.63;;
7076;SDS011;3579;48.956;9.154;2023-08-20T04:31:46;1.70;;;1.60;;
7076;SDS011;3579;48.956;9.154;2023-08-20T04:34:12;1.60;;;1.50;;
7076;SDS011;3579;48.956;9.154;2023-08-20T04:36:38;1.70;;;1.60;;
7076;SDS011;3579;48.956;9.154;2023-08-20T04:39:04;2.10;;;1.60;;
7076;SDS011;3579;48.956;9.154;2023-08-20T04:41:30;1.63;;;1.53;;
7076;SDS011;3579;48.956;9.154;2023-08-20T04:43:56;1.70;;;1.60;;
7076;SDS011;3579;48.956;9.154;2023-08-20T04:46:22;1.40;;;1.30;;
7076;SDS011;3579;48.956;9.154;2023-08-20T04:48:48;2.00;;;1.80;;
7076;SDS011;3579;48.956;9.154;2023-08-20T04:51:14;1.60;;;1.50;;
7076;SDS011;3579;48.956;9.154;2023-08-20T04:53:40;1.60;;;1.50;;
7076;SDS011;3579;48.956;9.154;2023-08-20T04:56:06;1.60;;;1.50;;
7076;SDS011;3579;48.956;9.154;2023-08-20T04:58:32;1.80;;;1.70;;
7076;SDS011;3579;48.956;9.154;2023-08-20T05:00:58;3.30;;;1.90;;
7076;SDS011;3579;48.956;9.154;2023-08-20T05:03:25;1.70;;;1.60;;
7076;SDS011;3579;48.956;9.154;2023-08-20T05:05:51;1.90;;;1.70;;
7076;SDS011;3579;48.956;9.154;2023-08-20T05:08:17;1.60;;;1.50;;
7076;SDS011;3579;48.956;9.154;2023-08-20T05:10:43;1.80;;;1.70;;
7076;SDS011;3579;48.956;9.154;2023-08-20T05:13:09;1.70;;;1.60;;
7076;SDS011;3579;48.956;9.154;2023-08-20T05:15:36;1.80;;;1.70;;
7076;SDS011;3579;48.956;9.154;2023-08-20T05:18:02;1.60;;;1.50;;
7076;SDS011;3579;48.956;9.154;2023-08-20T05:20:28;1.80;;;1.70;;
7076;SDS011;3579;48.956;9.154;2023-08-20T05:22:53;1.70;;;1.60;;
7076;SDS011;3579;48.956;9.154;2023-08-20T05:25:19;1.80;;;1.70;;
7076;SDS011;3579;48.956;9.154;2023-08-20T05:27:45;1.80;;;1.70;;
7076;SDS011;3579;48.956;9.154;2023-08-20T05:30:12;1.77;;;1.67;;
7076;SDS011;3579;48.956;9.154;2023-08-20T05:32:38;1.70;;;1.60;;
7076;SDS011;3579;48.956;9.154;2023-08-20T05:35:04;2.13;;;1.93;;
7076;SDS011;3579;48.956;9.154;2023-08-20T05:37:31;1.80;;;1.70;;
7076;SDS011;3579;48.956;9.154;2023-08-20T05:39:57;1.60;;;1.50;;
7076;SDS011;3579;48.956;9.154;2023-08-20T05:42:23;2.20;;;1.57;;
7076;SDS011;3579;48.956;9.154;2023-08-20T05:44:49;1.70;;;1.60;;
7076;SDS011;3579;48.956;9.154;2023-08-20T05:47:15;1.67;;;1.57;;
7076;SDS011;3579;48.956;9.154;2023-08-20T05:49:41;1.87;;;1.70;;
7076;SDS011;3579;48.956;9.154;2023-08-20T05:52:07;1.50;;;1.40;;
7076;SDS011;3579;48.956;9.154;2023-08-20T05:54:33;1.63;;;1.53;;
7076;SDS011;3579;48.956;9.154;2023-08-20T05:56:59;1.70;;;1.60;;
7076;SDS011;3579;48.956;9.154;2023-08-20T05:59:25;1.77;;;1.67;;
7076;SDS011;3579;48.956;9.154;2023-08-20T06:01:52;1.70;;;1.60;;
7076;SDS011;3579;48.956;9.154;2023-08-20T06:04:18;1.80;;;1.70;;
7076;SDS011;3579;48.956;9.154;2023-08-20T06:06:44;2.10;;;1.73;;
7076;SDS011;3579;48.956;9.154;2023-08-20T06:09:10;1.83;;;1.73;;
7076;SDS011;3579;48.956;9.154;2023-08-20T06:11:36;1.90;;;1.80;;
7076;SDS011;3579;48.956;9.154;2023-08-20T06:14:02;1.70;;;1.60;;
7076;SDS011;3579;48.956;9.154;2023-08-20T06:16:28;2.37;;;1.80;;
7076;SDS011;3579;48.956;9.154;2023-08-20T06:18:54;1.70;;;1.60;;
7076;SDS011;3579;48.956;9.154;2023-08-20T06:21:20;1.70;;;1.60;;
7076;SDS011;3579;48.956;9.154;2023-08-20T06:23:47;1.73;;;1.63;;
7076;SDS011;3579;48.956;9.154;2023-08-20T06:26:13;2.00;;;1.80;;
7076;SDS011;3579;48.956;9.154;2023-08-20T06:28:39;2.03;;;1.50;;
7076;SDS011;3579;48.956;9.154;2023-08-20T06:31:05;1.87;;;1.70;;
7076;SDS011;3579;48.956;9.154;2023-08-20T06:33:31;2.00;;;1.80;;
7076;SDS011;3579;48.956;9.154;2023-08-20T06:35:57;2.00;;;1.80;;
7076;SDS011;3579;48.956;9.154;2023-08-20T06:38:23;1.90;;;1.80;;
7076;SDS011;3579;48.956;9.154;2023-08-20T06:40:49;2.37;;;1.70;;
7076;SDS011;3579;48.956;9.154;2023-08-20T06:43:15;1.83;;;1.67;;
7076;SDS011;3579;48.956;9.154;2023-08-20T06:45:41;1.87;;;1.77;;
7076;SDS011;3579;48.956;9.154;2023-08-20T06:48:07;1.80;;;1.70;;
7076;SDS011;3579;48.956;9.154;2023-08-20T06:50:33;1.70;;;1.60;;
7076;SDS011;3579;48.956;9.154;2023-08-20T06:52:59;1.87;;;1.70;;
7076;SDS011;3579;48.956;9.154;2023-08-20T06:55:25;1.77;;;1.67;;
7076;SDS011;3579;48.956;9.154;2023-08-20T06:57:51;1.73;;;1.63;;
7076;SDS011;3579;48.956;9.154;2023-08-20T07:00:17;1.80;;;1.70;;
7076;SDS011;3579;48.956;9.154;2023-08-20T07:02:44;1.93;;;1.83;;
7076;SDS011;3579;48.956;9.154;2023-08-20T07:05:10;1.60;;;1.50;;
7076;SDS011;3579;48.956;9.154;2023-08-20T07:07:36;1.67;;;1.50;;
7076;SDS011;3579;48.956;9.154;2023-08-20T07:10:03;1.70;;;1.60;;
7076;SDS011;3579;48.956;9.154;2023-08-20T07:12:29;1.80;;;1.70;;
7076;SDS011;3579;48.956;9.154;2023-08-20T07:14:55;1.70;;;1.60;;
7076;SDS011;3579;48.956;9.154;2023-08-20T07:17:21;1.73;;;1.63;;
7076;SDS011;3579;48.956;9.154;2023-08-20T07:19:47;2.27;;;1.80;;
7076;SDS011;3579;48.956;9.154;2023-08-20T07:22:13;1.70;;;1.60;;
7076;SDS011;3579;48.956;9.154;2023-08-20T07:24:39;1.60;;;1.50;;
7076;SDS011;3579;48.956;9.154;2023-08-20T07:27:05;1.70;;;1.60;;
7076;SDS011;3579;48.956;9.154;2023-08-20T07:29:36;1.97;;;1.87;;
7076;SDS011;3579;48.956;9.154;2023-08-20T07:32:02;1.57;;;1.47;;
7076;SDS011;3579;48.956;9.154;2023-08-20T07:34:29;1.80;;;1.70;;
7076;SDS011;3579;48.956;9.154;2023-08-20T07:36:56;1.90;;;1.80;;
7076;SDS011;3579;48.956;9.154;2023-08-20T07:39:22;1.60;;;1.50;;
7076;SDS011;3579;48.956;9.154;2023-08-20T07:41:48;1.77;;;1.67;;
7076;SDS011;3579;48.956;9.154;2023-08-20T07:44:14;2.00;;;1.90;;
7076;SDS011;3579;48.956;9.154;2023-08-20T07:46:40;1.77;;;1.67;;
7076;SDS011;3579;48.956;9.154;2023-08-20T07:49:06;1.87;;;1.77;;
7076;SDS011;3579;48.956;9.154;2023-08-20T07:51:33;2.37;;;1.93;;
7076;SDS011;3579;48.956;9.154;2023-08-20T07:53:59;1.93;;;1.80;;
7076;SDS011;3579;48.956;9.154;2023-08-20T07:56:26;1.60;;;1.50;;
7076;SDS011;3579;48.956;9.154;2023-08-20T07:58:52;1.80;;;1.70;;
7076;SDS011;3579;48.956;9.154;2023-08-20T08:01:18;2.20;;;2.00;;
7076;SDS011;3579;48.956;9.154;2023-08-20T08:03:44;1.80;;;1.70;;
7076;SDS011;3579;48.956;9.154;2023-08-20T08:06:10;1.70;;;1.60;;
7076;SDS011;3579;48.956;9.154;2023-08-20T08:08:37;1.70;;;1.60;;
7076;SDS011;3579;48.956;9.154;2023-08-20T08:11:07;1.70;;;1.60;;
7076;SDS011;3579;48.956;9.154;2023-08-20T08:13:33;1.80;;;1.70;;
7076;SDS011;3579;48.956;9.154;2023-08-20T08:15:59;1.90;;;1.80;;
7076;SDS011;3579;48.956;9.154;2023-08-20T08:18:25;1.80;;;1.70;;
7076;SDS011;3579;48.956;9.154;2023-08-20T08:20:51;2.00;;;1.80;;
7076;SDS011;3579;48.956;9.154;2023-08-20T08:23:17;1.63;;;1.53;;
7076;SDS011;3579;48.956;9.154;2023-08-20T08:25:43;1.83;;;1.73;;
7076;SDS011;3579;48.956;9.154;2023-08-20T08:28:09;1.80;;;1.70;;
7076;SDS011;3579;48.956;9.154;2023-08-20T08:30:35;1.83;;;1.70;;
7076;SDS011;3579;48.956;9.154;2023-08-20T08:33:01;2.00;;;1.80;;
7076;SDS011;3579;48.956;9.154;2023-08-20T08:35:28;2.00;;;1.80;;
7076;SDS011;3579;48.956;9.154;2023-08-20T08:37:54;1.80;;;1.70;;
7076;SDS011;3579;48.956;9.154;2023-08-20T08:40:21;1.83;;;1.73;;
7076;SDS011;3579;48.956;9.154;2023-08-20T08:42:48;1.80;;;1.70;;
7076;SDS011;3579;48.956;9.154;2023-08-20T08:45:18;1.70;;;1.60;;
7076;SDS011;3579;48.956;9.154;2023-08-20T08:47:45;1.90;;;1.80;;
7076;SDS011;3579;48.956;9.154;2023-08-20T08:50:11;1.80;;;1.70;;
7076;SDS011;3579;48.956;9.154;2023-08-20T08:52:38;1.70;;;1.60;;
7076;SDS011;3579;48.956;9.154;2023-08-20T08:55:05;1.90;;;1.80;;
7076;SDS011;3579;48.956;9.154;2023-08-20T08:57:35;1.80;;;1.70;;
7076;SDS011;3579;48.956;9.154;2023-08-20T09:00:04;1.77;;;1.60;;
7076;SDS011;3579;48.956;9.154;2023-08-20T09:02:31;1.77;;;1.67;;
7076;SDS011;3579;48.956;9.154;2023-08-20T09:04:57;1.90;;;1.80;;
7076;SDS011;3579;48.956;9.154;2023-08-20T09:07:23;2.03;;;1.80;;
7076;SDS011;3579;48.956;9.154;2023-08-20T09:09:49;1.67;;;1.57;;
7076;SDS011;3579;48.956;9.154;2023-08-20T09:12:16;1.80;;;1.70;;
7076;SDS011;3579;48.956;9.154;2023-08-20T09:14:43;1.90;;;1.80;;
7076;SDS011;3579;48.956;9.154;2023-08-20T09:17:14;2.47;;;2.00;;
7076;SDS011;3579;48.956;9.154;2023-08-20T09:19:42;1.77;;;1.67;;
7076;SDS011;3579;48.956;9.154;2023-08-20T09:22:12;2.20;;;2.00;;
7076;SDS011;3579;48.956;9.154;2023-08-20T09:24:41;1.70;;;1.60;;
7076;SDS011;3579;48.956;9.154;2023-08-20T09:27:08;1.93;;;1.73;;
7076;SDS011;3579;48.956;9.154;2023-08-20T09:29:50;1.90;;;1.80;;
7076;SDS011;3579;48.956;9.154;2023-08-20T09:32:18;1.83;;;1.73;;
7076;SDS011;3579;48.956;9.154;2023-08-20T09:34:46;2.20;;;1.70;;
7076;SDS011;3579;48.956;9.154;2023-08-20T09:37:14;1.90;;;1.80;;
7076;SDS011;3579;48.956;9.154;2023-08-20T09:39:41;2.17;;;1.97;;
7076;SDS011;3579;48.956;9.154;2023-08-20T09:42:10;2.07;;;1.73;;
7076;SDS011;3579;48.956;9.154;2023-08-20T09:44:41;1.80;;;1.70;;
7076;SDS011;3579;48.956;9.154;2023-08-20T09:47:08;2.00;;;1.90;;
7076;SDS011;3579;48.956;9.154;2023-08-20T09:49:40;1.70;;;1.60;;
7076;SDS011;3579;48.956;9.154;2023-08-20T09:52:11;1.60;;;1.50;;
7076;SDS011;3579;48.956;9.154;2023-08-20T10:00:00;1.60;;;1.50;;
7076;SDS011;3579;48.956;9.154;2023-08-20T10:02:28;2.03;;;1.63;;
7076;SDS011;3579;48.956;9.154;2023-08-20T10:04:55;1.87;;;1.77;;
7076;SDS011;3579;48.956;9.154;2023-08-20T10:07:21;1.70;;;1.60;;
7076;SDS011;3579;48.956;9.154;2023-08-20T10:09:49;1.73;;;1.53;;
7076;SDS011;3579;48.956;9.154;2023-08-20T10:12:17;1.87;;;1.67;;
7076;SDS011;3579;48.956;9.154;2023-08-20T10:14:43;1.90;;;1.70;;
7076;SDS011;3579;48.956;9.154;2023-08-20T10:17:11;1.80;;;1.70;;
7076;SDS011;3579;48.956;9.154;2023-08-20T10:19:38;1.87;;;1.77;;
7076;SDS011;3579;48.956;9.154;2023-08-20T10:22:04;1.70;;;1.60;;
7076;SDS011;3579;48.956;9.154;2023-08-20T10:24:41;1.87;;;1.77;;
7076;SDS011;3579;48.956;9.154;2023-08-20T10:27:23;1.90;;;1.80;;
7076;SDS011;3579;48.956;9.154;2023-08-20T10:29:55;1.97;;;1.80;;
7076;SDS011;3579;48.956;9.154;2023-08-20T10:35:27;2.00;;;1.70;;
7076;SDS011;3579;48.956;9.154;2023-08-20T10:40:46;2.07;;;1.87;;
7076;SDS011;3579;48.956;9.154;2023-08-20T10:46:04;2.43;;;1.77;;
7076;SDS011;3579;48.956;9.154;2023-08-20T10:48:38;2.00;;;1.90;;
7076;SDS011;3579;48.956;9.154;2023-08-20T10:51:06;1.93;;;1.77;;
7076;SDS011;3579;48.956;9.154;2023-08-20T10:53:36;1.90;;;1.80;;
7076;SDS011;3579;48.956;9.154;2023-08-20T10:56:08;1.90;;;1.80;;
7076;SDS011;3579;48.956;9.154;2023-08-20T10:58:37;1.80;;;1.70;;
7076;SDS011;3579;48.956;9.154;2023-08-20T11:01:12;1.87;;;1.77;;
7076;SDS011;3579;48.956;9.154;2023-08-20T11:03:50;1.90;;;1.70;;
7076;SDS011;3579;48.956;9.154;2023-08-20T11:06:17;1.90;;;1.80;;
7076;SDS011;3579;48.956;9.154;2023-08-20T11:08:44;1.73;;;1.63;;
7076;SDS011;3579;48.956;9.154;2023-08-20T11:11:10;1.80;;;1.70;;
7076;SDS011;3579;48.956;9.154;2023-08-20T11:13:37;1.87;;;1.67;;
7076;SDS011;3579;48.956;9.154;2023-08-20T11:16:03;1.60;;;1.50;;
7076;SDS011;3579;48.956;9.154;2023-08-20T11:18:31;2.00;;;1.80;;
7076;SDS011;3579;48.956;9.154;2023-08-20T11:20:58;1.90;;;1.80;;
7076;SDS011;3579;48.956;9.154;2023-08-20T11:23:24;1.80;;;1.70;;
7076;SDS011;3579;48.956;9.154;2023-08-20T11:25:50;1.80;;;1.70;;
7076;SDS011;3579;48.956;9.154;2023-08-20T11:28:16;1.70;;;1.60;;
7076;SDS011;3579;48.956;9.154;2023-08-20T11:30:42;1.80;;;1.70;;
7076;SDS011;3579;48.956;9.154;2023-08-20T11:33:09;1.80;;;1.70;;
7076;SDS011;3579;48.956;9.154;2023-08-20T11:35:35;1.90;;;1.80;;
7076;SDS011;3579;48.956;9.154;2023-08-20T11:38:04;2.00;;;1.90;;
7076;SDS011;3579;48.956;9.154;2023-08-20T11:40:31;1.97;;;1.87;;
7076;SDS011;3579;48.956;9.154;2023-08-20T11:42:57;1.70;;;1.60;;
7076;SDS011;3579;48.956;9.154;2023-08-20T11:45:23;2.10;;;1.90;;
7076;SDS011;3579;48.956;9.154;2023-08-20T11:47:49;1.90;;;1.80;;
7076;SDS011;3579;48.956;9.154;2023-08-20T11:50:20;1.90;;;1.80;;
7076;SDS011;3579;48.956;9.154;2023-08-20T11:52:46;1.80;;;1.70;;
7076;SDS011;3579;48.956;9.154;2023-08-20T11:55:12;1.97;;;1.77;;
7076;SDS011;3579;48.956;9.154;2023-08-20T11:57:38;2.17;;;1.97;;
7076;SDS011;3579;48.956;9.154;2023-08-20T12:00:05;1.80;;;1.70;;
7076;SDS011;3579;48.956;9.154;2023-08-20T12:02:41;1.80;;;1.70;;
7076;SDS011;3579;48.956;9.154;2023-08-20T12:05:07;2.33;;;1.90;;
7076;SDS011;3579;48.956;9.154;2023-08-20T12:07:33;2.10;;;2.00;;
7076;SDS011;3579;48.956;9.154;2023-08-20T12:10:06;2.10;;;1.90;;
7076;SDS011;3579;48.956;9.154;2023-08-20T12:12:44;2.10;;;1.90;;
7076;SDS011;3579;48.956;9.154;2023-08-20T12:15:10;2.10;;;1.90;;
7076;SDS011;3579;48.956;9.154;2023-08-20T12:17:36;2.10;;;1.97;;
7076;SDS011;3579;48.956;9.154;2023-08-20T12:20:02;2.60;;;1.93;;
7076;SDS011;3579;48.956;9.154;2023-08-20T12:22:40;2.00;;;1.80;;
7076;SDS011;3579;48.956;9.154;2023-08-20T12:25:06;2.20;;;2.00;;
7076;SDS011;3579;48.956;9.154;2023-08-20T12:27:33;2.07;;;1.93;;
7076;SDS011;3579;48.956;9.154;2023-08-20T12:29:59;1.80;;;1.70;;
7076;SDS011;3579;48.956;9.154;2023-08-20T12:32:25;1.80;;;1.70;;
7076;SDS011;3579;48.956;9.154;2023-08-20T12:34:51;1.93;;;1.83;;
7076;SDS011;3579;48.956;9.154;2023-08-20T12:37:17;1.90;;;1.80;;
7076;SDS011;3579;48.956;9.154;2023-08-20T12:39:43;2.03;;;1.73;;
7076;SDS011;3579;48.956;9.154;2023-08-20T12:42:09;2.03;;;1.83;;
7076;SDS011;3579;48.956;9.154;2023-08-20T12:44:35;1.90;;;1.80;;
7076;SDS011;3579;48.956;9.154;2023-08-20T12:47:01;3.17;;;2.00;;
7076;SDS011;3579;48.956;9.154;2023-08-20T12:49:27;1.90;;;1.80;;
7076;SDS011;3579;48.956;9.154;2023-08-20T12:51:53;1.93;;;1.83;;
7076;SDS011;3579;48.956;9.154;2023-08-20T12:54:19;1.90;;;1.80;;
7076;SDS011;3579;48.956;9.154;2023-08-20T12:56:45;1.80;;;1.70;;
7076;SDS011;3579;48.956;9.154;2023-08-20T12:59:11;1.70;;;1.60;;
7076;SDS011;3579;48.956;9.154;2023-08-20T13:01:37;2.10;;;1.90;;
7076;SDS011;3579;48.956;9.154;2023-08-20T13:04:03;2.07;;;1.87;;
7076;SDS011;3579;48.956;9.154;2023-08-20T13:06:30;2.03;;;1.70;;
7076;SDS011;3579;48.956;9.154;2023-08-20T13:08:56;2.00;;;1.90;;
7076;SDS011;3579;48.956;9.154;2023-08-20T13:11:22;2.07;;;1.87;;
7076;SDS011;3579;48.956;9.154;2023-08-20T13:13:51;1.90;;;1.80;;
7076;SDS011;3579;48.956;9.154;2023-08-20T13:16:18;1.90;;;1.80;;
7076;SDS011;3579;48.956;9.154;2023-08-20T13:18:45;1.90;;;1.80;;
7076;SDS011;3579;48.956;9.154;2023-08-20T13:21:11;1.80;;;1.70;;
7076;SDS011;3579;48.956;9.154;2023-08-20T13:23:37;1.80;;;1.70;;
7076;SDS011;3579;48.956;9.154;2023-08-20T13:26:03;1.97;;;1.77;;
7076;SDS011;3579;48.956;9.154;2023-08-20T13:28:29;1.70;;;1.60;;
7076;SDS011;3579;48.956;9.154;2023-08-20T13:30:55;2.00;;;1.80;;
7076;SDS011;3579;48.956;9.154;2023-08-20T13:33:21;1.90;;;1.80;;
7076;SDS011;3579;48.956;9.154;2023-08-20T13:35:47;2.10;;;1.90;;
7076;SDS011;3579;48.956;9.154;2023-08-20T13:38:13;2.00;;;1.80;;
7076;SDS011;3579;48.956;9.154;2023-08-20T13:40:39;1.80;;;1.70;;
7076;SDS011;3579;48.956;9.154;2023-08-20T13:43:05;2.00;;;1.90;;
7076;SDS011;3579;48.956;9.154;2023-08-20T13:45:31;1.90;;;1.80;;
7076;SDS011;3579;48.956;9.154;2023-08-20T13:47:57;2.00;;;1.90;;
7076;SDS011;3579;48.956;9.154;2023-08-20T13:50:23;1.83;;;1.73;;
7076;SDS011;3579;48.956;9.154;2023-08-20T13:52:50;1.80;;;1.70;;
7076;SDS011;3579;48.956;9.154;2023-08-20T13:55:16;2.00;;;1.90;;
7076;SDS011;3579;48.956;9.154;2023-08-20T13:57:42;1.97;;;1.70;;
7076;SDS011;3579;48.956;9.154;2023-08-20T14:00:08;1.80;;;1.70;;
7076;SDS011;3579;48.956;9.154;2023-08-20T14:02:38;1.70;;;1.60;;
7076;SDS011;3579;48.956;9.154;2023-08-20T14:05:04;1.73;;;1.63;;
7076;SDS011;3579;48.956;9.154;2023-08-20T14:07:31;2.83;;;2.20;;
7076;SDS011;3579;48.956;9.154;2023-08-20T14:10:01;1.97;;;1.87;;
7076;SDS011;3579;48.956;9.154;2023-08-20T14:12:29;2.13;;;1.97;;
7076;SDS011;3579;48.956;9.154;2023-08-20T14:14:55;1.90;;;1.80;;
7076;SDS011;3579;48.956;9.154;2023-08-20T14:17:21;1.87;;;1.77;;
7076;SDS011;3579;48.956;9.154;2023-08-20T14:19:47;2.13;;;1.93;;
7076;SDS011;3579;48.956;9.154;2023-08-20T14:22:13;2.33;;;1.70;;
7076;SDS011;3579;48.956;9.154;2023-08-20T14:24:39;1.70;;;1.60;;
7076;SDS011;3579;48.956;9.154;2023-08-20T14:27:05;1.90;;;1.80;;
7076;SDS011;3579;48.956;9.154;2023-08-20T14:29:32;1.93;;;1.83;;
7076;SDS011;3579;48.956;9.154;2023-08-20T14:31:58;2.00;;;1.80;;
7076;SDS011;3579;48.956;9.154;2023-08-20T14:34:24;1.97;;;1.80;;
7076;SDS011;3579;48.956;9.154;2023-08-20T14:36:50;1.83;;;1.73;;
7076;SDS011;3579;48.956;9.154;2023-08-20T14:39:16;1.80;;;1.70;;
7076;SDS011;3579;48.956;9.154;2023-08-20T14:41:43;1.80;;;1.70;;
7076;SDS011;3579;48.956;9.154;2023-08-20T14:44:09;1.70;;;1.60;;
7076;SDS011;3579;48.956;9.154;2023-08-20T14:46:35;1.90;;;1.80;;
7076;SDS011;3579;48.956;9.154;2023-08-20T14:49:00;1.97;;;1.80;;
7076;SDS011;3579;48.956;9.154;2023-08-20T14:51:26;2.10;;;1.90;;
7076;SDS011;3579;48.956;9.154;2023-08-20T14:53:52;2.00;;;1.80;;
7076;SDS011;3579;48.956;9.154;2023-08-20T14:56:18;1.90;;;1.80;;
7076;SDS011;3579;48.956;9.154;2023-08-20T14:58:44;1.80;;;1.70;;
7076;SDS011;3579;48.956;9.154;2023-08-20T15:01:10;1.90;;;1.80;;
7076;SDS011;3579;48.956;9.154;2023-08-20T15:03:36;2.20;;;2.00;;
7076;SDS011;3579;48.956;9.154;2023-08-20T15:06:02;1.80;;;1.70;;
7076;SDS011;3579;48.956;9.154;2023-08-20T15:08:29;1.90;;;1.80;;
7076;SDS011;3579;48.956;9.154;2023-08-20T15:10:58;1.73;;;1.63;;
7076;SDS011;3579;48.956;9.154;2023-08-20T15:13:27;1.83;;;1.67;;
7076;SDS011;3579;48.956;9.154;2023-08-20T15:15:54;2.20;;;2.00;;
7076;SDS011;3579;48.956;9.154;2023-08-20T15:18:20;1.90;;;1.80;;
7076;SDS011;3579;48.956;9.154;2023-08-20T15:20:56;1.90;;;1.80;;
7076;SDS011;3579;48.956;9.154;2023-08-20T15:23:24;1.93;;;1.73;;
7076;SDS011;3579;48.956;9.154;2023-08-20T15:25:52;1.90;;;1.80;;
7076;SDS011;3579;48.956;9.154;2023-08-20T15:28:19;1.90;;;1.80;;
7076;SDS011;3579;48.956;9.154;2023-08-20T15:30:46;1.90;;;1.80;;
7076;SDS011;3579;48.956;9.154;2023-08-20T15:33:12;1.70;;;1.60;;
7076;SDS011;3579;48.956;9.154;2023-08-20T15:35:39;1.87;;;1.77;;